sensor_id;sensor_type;location;lat;lon;timestamp;P1;P2;P0
72023;PMS5003;59889;50.700;5.440;2023-02-04T00:00:27;3;3;
72023;PMS5003;59889;50.700;5.440;2023-02-04T00:02:52;3;3;
72023;PMS5003;59889;50.700;5.440;2023-02-04T00:05:17;3;2;
72023;PMS5003;59889;50.700;5.440;2023-02-04T00:07:42;2;2;
72023;PMS5003;59889;50.700;5.440;2023-02-04T00:10:07;2;2;
72023;PMS5003;59889;50.700;5.440;2023-02-04T00:12:32;4;4;
72023;PMS5003;59889;50.700;5.440;2023-02-04T00:14:57;2;2;
72023;PMS5003;59889;50.700;5.440;2023-02-04T00:17:22;2;2;
72023;PMS5003;59889;50.700;5.440;2023-02-04T00:19:48;2;2;
72023;PMS5003;59889;50.700;5.440;2023-02-04T00:22:13;2;2;
72023;PMS5003;59889;50.700;5.440;2023-02-04T00:24:37;3;3;
72023;PMS5003;59889;50.700;5.440;2023-02-04T00:27:03;2;2;
72023;PMS5003;59889;50.700;5.440;2023-02-04T00:29:28;3;3;
72023;PMS5003;59889;50.700;5.440;2023-02-04T00:31:53;2;2;
72023;PMS5003;59889;50.700;5.440;2023-02-04T00:34:18;2;2;
72023;PMS5003;59889;50.700;5.440;2023-02-04T00:36:43;3;3;
72023;PMS5003;59889;50.700;5.440;2023-02-04T00:39:08;2;2;
72023;PMS5003;59889;50.700;5.440;2023-02-04T00:41:33;2;2;
72023;PMS5003;59889;50.700;5.440;2023-02-04T00:43:58;3;3;
72023;PMS5003;59889;50.700;5.440;2023-02-04T00:46:24;1;1;
72023;PMS5003;59889;50.700;5.440;2023-02-04T00:48:48;2;2;
72023;PMS5003;59889;50.700;5.440;2023-02-04T00:51:13;3;2;
72023;PMS5003;59889;50.700;5.440;2023-02-04T00:53:38;2;2;
72023;PMS5003;59889;50.700;5.440;2023-02-04T00:56:04;0;0;
72023;PMS5003;59889;50.700;5.440;2023-02-04T00:58:29;3;3;
72023;PMS5003;59889;50.700;5.440;2023-02-04T01:00:54;2;2;
72023;PMS5003;59889;50.700;5.440;2023-02-04T01:03:19;0;0;
72023;PMS5003;59889;50.700;5.440;2023-02-04T01:05:44;2;1;
72023;PMS5003;59889;50.700;5.440;2023-02-04T01:08:09;3;2;
72023;PMS5003;59889;50.700;5.440;2023-02-04T01:10:34;2;2;
72023;PMS5003;59889;50.700;5.440;2023-02-04T01:12:59;2;2;
72023;PMS5003;59889;50.700;5.440;2023-02-04T01:15:25;1;1;
72023;PMS5003;59889;50.700;5.440;2023-02-04T01:17:49;2;2;
72023;PMS5003;59889;50.700;5.440;2023-02-04T01:20:15;1;1;
72023;PMS5003;59889;50.700;5.440;2023-02-04T01:22:40;1;1;
72023;PMS5003;59889;50.700;5.440;2023-02-04T01:25:05;1;1;
72023;PMS5003;59889;50.700;5.440;2023-02-04T01:27:30;2;2;
72023;PMS5003;59889;50.700;5.440;2023-02-04T01:29:55;2;2;
72023;PMS5003;59889;50.700;5.440;2023-02-04T01:32:20;2;2;
72023;PMS5003;59889;50.700;5.440;2023-02-04T01:34:45;1;1;
72023;PMS5003;59889;50.700;5.440;2023-02-04T01:37:10;2;2;
72023;PMS5003;59889;50.700;5.440;2023-02-04T01:39:35;2;2;
72023;PMS5003;59889;50.700;5.440;2023-02-04T01:42:00;1;1;
72023;PMS5003;59889;50.700;5.440;2023-02-04T01:44:25;2;2;
72023;PMS5003;59889;50.700;5.440;2023-02-04T01:46:50;2;1;
72023;PMS5003;59889;50.700;5.440;2023-02-04T01:49:16;3;2;
72023;PMS5003;59889;50.700;5.440;2023-02-04T01:51:41;2;2;
72023;PMS5003;59889;50.700;5.440;2023-02-04T01:54:08;3;3;
72023;PMS5003;59889;50.700;5.440;2023-02-04T01:56:31;3;3;
72023;PMS5003;59889;50.700;5.440;2023-02-04T01:58:56;2;2;
72023;PMS5003;59889;50.700;5.440;2023-02-04T02:03:46;2;2;
72023;PMS5003;59889;50.700;5.440;2023-02-04T02:06:21;3;3;
72023;PMS5003;59889;50.700;5.440;2023-02-04T02:08:36;1;1;
72023;PMS5003;59889;50.700;5.440;2023-02-04T02:11:01;2;2;
72023;PMS5003;59889;50.700;5.440;2023-02-04T02:15:51;2;2;
72023;PMS5003;59889;50.700;5.440;2023-02-04T02:18:16;1;1;
72023;PMS5003;59889;50.700;5.440;2023-02-04T02:20:43;3;2;
72023;PMS5003;59889;50.700;5.440;2023-02-04T02:23:10;2;2;
72023;PMS5003;59889;50.700;5.440;2023-02-04T02:25:32;2;2;
72023;PMS5003;59889;50.700;5.440;2023-02-04T02:27:57;2;2;
72023;PMS5003;59889;50.700;5.440;2023-02-04T02:30:22;2;2;
72023;PMS5003;59889;50.700;5.440;2023-02-04T02:32:47;1;1;
72023;PMS5003;59889;50.700;5.440;2023-02-04T02:35:12;2;2;
72023;PMS5003;59889;50.700;5.440;2023-02-04T02:37:37;2;2;
72023;PMS5003;59889;50.700;5.440;2023-02-04T02:40:02;3;2;
72023;PMS5003;59889;50.700;5.440;2023-02-04T02:42:27;2;2;
72023;PMS5003;59889;50.700;5.440;2023-02-04T02:44:52;2;2;
72023;PMS5003;59889;50.700;5.440;2023-02-04T02:47:19;1;1;
72023;PMS5003;59889;50.700;5.440;2023-02-04T02:49:42;3;3;
72023;PMS5003;59889;50.700;5.440;2023-02-04T02:52:09;2;2;
72023;PMS5003;59889;50.700;5.440;2023-02-04T02:54:38;2;2;
72023;PMS5003;59889;50.700;5.440;2023-02-04T02:56:58;1;1;
72023;PMS5003;59889;50.700;5.440;2023-02-04T02:59:23;3;3;
72023;PMS5003;59889;50.700;5.440;2023-02-04T03:01:54;2;2;
72023;PMS5003;59889;50.700;5.440;2023-02-04T03:04:13;3;3;
72023;PMS5003;59889;50.700;5.440;2023-02-04T03:06:38;2;2;
72023;PMS5003;59889;50.700;5.440;2023-02-04T03:09:03;2;2;
72023;PMS5003;59889;50.700;5.440;2023-02-04T03:11:38;1;1;
72023;PMS5003;59889;50.700;5.440;2023-02-04T03:13:53;2;2;
72023;PMS5003;59889;50.700;5.440;2023-02-04T03:16:18;1;1;
72023;PMS5003;59889;50.700;5.440;2023-02-04T03:18:43;2;2;
72023;PMS5003;59889;50.700;5.440;2023-02-04T03:21:09;1;1;
72023;PMS5003;59889;50.700;5.440;2023-02-04T03:23:34;2;2;
72023;PMS5003;59889;50.700;5.440;2023-02-04T03:25:59;3;2;
72023;PMS5003;59889;50.700;5.440;2023-02-04T03:28:24;3;2;
72023;PMS5003;59889;50.700;5.440;2023-02-04T03:30:54;1;1;
72023;PMS5003;59889;50.700;5.440;2023-02-04T03:33:14;2;2;
72023;PMS5003;59889;50.700;5.440;2023-02-04T03:35:39;1;1;
72023;PMS5003;59889;50.700;5.440;2023-02-04T03:38:04;2;2;
72023;PMS5003;59889;50.700;5.440;2023-02-04T03:40:29;3;3;
72023;PMS5003;59889;50.700;5.440;2023-02-04T03:42:54;2;2;
72023;PMS5003;59889;50.700;5.440;2023-02-04T03:45:19;2;2;
72023;PMS5003;59889;50.700;5.440;2023-02-04T03:47:44;2;2;
72023;PMS5003;59889;50.700;5.440;2023-02-04T03:50:10;2;2;
72023;PMS5003;59889;50.700;5.440;2023-02-04T03:52:35;2;2;
72023;PMS5003;59889;50.700;5.440;2023-02-04T03:55:00;2;2;
72023;PMS5003;59889;50.700;5.440;2023-02-04T03:57:26;2;2;
72023;PMS5003;59889;50.700;5.440;2023-02-04T03:59:50;2;2;
72023;PMS5003;59889;50.700;5.440;2023-02-04T04:02:15;2;2;
72023;PMS5003;59889;50.700;5.440;2023-02-04T04:07:05;1;1;
72023;PMS5003;59889;50.700;5.440;2023-02-04T04:09:30;2;2;
72023;PMS5003;59889;50.700;5.440;2023-02-04T04:11:55;2;2;
72023;PMS5003;59889;50.700;5.440;2023-02-04T04:14:20;1;1;
72023;PMS5003;59889;50.700;5.440;2023-02-04T04:16:46;1;1;
72023;PMS5003;59889;50.700;5.440;2023-02-04T04:19:11;2;2;
72023;PMS5003;59889;50.700;5.440;2023-02-04T04:21:36;2;2;
72023;PMS5003;59889;50.700;5.440;2023-02-04T04:24:01;2;2;
72023;PMS5003;59889;50.700;5.440;2023-02-04T04:26:26;4;4;
72023;PMS5003;59889;50.700;5.440;2023-02-04T04:28:51;1;1;
72023;PMS5003;59889;50.700;5.440;2023-02-04T04:31:16;1;1;
72023;PMS5003;59889;50.700;5.440;2023-02-04T04:33:42;2;2;
72023;PMS5003;59889;50.700;5.440;2023-02-04T04:36:06;2;2;
72023;PMS5003;59889;50.700;5.440;2023-02-04T04:38:42;1;1;
72023;PMS5003;59889;50.700;5.440;2023-02-04T04:41:01;2;2;
72023;PMS5003;59889;50.700;5.440;2023-02-04T04:43:21;3;3;
72023;PMS5003;59889;50.700;5.440;2023-02-04T04:45:47;1;1;
72023;PMS5003;59889;50.700;5.440;2023-02-04T04:48:12;0;0;
72023;PMS5003;59889;50.700;5.440;2023-02-04T04:50:37;1;1;
72023;PMS5003;59889;50.700;5.440;2023-02-04T04:53:02;2;2;
72023;PMS5003;59889;50.700;5.440;2023-02-04T04:55:28;1;1;
72023;PMS5003;59889;50.700;5.440;2023-02-04T04:57:52;1;1;
72023;PMS5003;59889;50.700;5.440;2023-02-04T05:00:18;1;1;
72023;PMS5003;59889;50.700;5.440;2023-02-04T05:02:42;2;1;
72023;PMS5003;59889;50.700;5.440;2023-02-04T05:05:07;2;2;
72023;PMS5003;59889;50.700;5.440;2023-02-04T05:07:32;2;2;
72023;PMS5003;59889;50.700;5.440;2023-02-04T05:09:57;2;2;
72023;PMS5003;59889;50.700;5.440;2023-02-04T05:12:23;2;2;
72023;PMS5003;59889;50.700;5.440;2023-02-04T05:14:47;1;1;
72023;PMS5003;59889;50.700;5.440;2023-02-04T05:17:13;2;2;
72023;PMS5003;59889;50.700;5.440;2023-02-04T05:19:38;1;1;
72023;PMS5003;59889;50.700;5.440;2023-02-04T05:22:08;3;2;
72023;PMS5003;59889;50.700;5.440;2023-02-04T05:24:28;2;2;
72023;PMS5003;59889;50.700;5.440;2023-02-04T05:26:53;3;2;
72023;PMS5003;59889;50.700;5.440;2023-02-04T05:29:18;2;1;
72023;PMS5003;59889;50.700;5.440;2023-02-04T05:31:43;2;2;
72023;PMS5003;59889;50.700;5.440;2023-02-04T05:34:08;1;1;
72023;PMS5003;59889;50.700;5.440;2023-02-04T05:36:33;2;2;
72023;PMS5003;59889;50.700;5.440;2023-02-04T05:38:58;1;1;
72023;PMS5003;59889;50.700;5.440;2023-02-04T05:41:23;1;1;
72023;PMS5003;59889;50.700;5.440;2023-02-04T05:43:48;1;1;
72023;PMS5003;59889;50.700;5.440;2023-02-04T05:46:13;2;1;
72023;PMS5003;59889;50.700;5.440;2023-02-04T05:48:39;2;1;
72023;PMS5003;59889;50.700;5.440;2023-02-04T05:51:04;1;1;
72023;PMS5003;59889;50.700;5.440;2023-02-04T05:53:29;1;1;
72023;PMS5003;59889;50.700;5.440;2023-02-04T05:55:54;2;1;
72023;PMS5003;59889;50.700;5.440;2023-02-04T05:58:19;1;1;
72023;PMS5003;59889;50.700;5.440;2023-02-04T06:00:44;2;1;
72023;PMS5003;59889;50.700;5.440;2023-02-04T06:03:10;2;1;
72023;PMS5003;59889;50.700;5.440;2023-02-04T06:05:34;1;1;
72023;PMS5003;59889;50.700;5.440;2023-02-04T06:07:59;0;0;
72023;PMS5003;59889;50.700;5.440;2023-02-04T06:10:24;3;3;
72023;PMS5003;59889;50.700;5.440;2023-02-04T06:12:49;1;1;
72023;PMS5003;59889;50.700;5.440;2023-02-04T06:15:15;2;2;
72023;PMS5003;59889;50.700;5.440;2023-02-04T06:17:40;2;2;
72023;PMS5003;59889;50.700;5.440;2023-02-04T06:20:05;1;1;
72023;PMS5003;59889;50.700;5.440;2023-02-04T06:22:30;3;3;
72023;PMS5003;59889;50.700;5.440;2023-02-04T06:24:55;2;2;
72023;PMS5003;59889;50.700;5.440;2023-02-04T06:27:20;1;1;
72023;PMS5003;59889;50.700;5.440;2023-02-04T06:29:45;1;1;
72023;PMS5003;59889;50.700;5.440;2023-02-04T06:32:11;1;1;
72023;PMS5003;59889;50.700;5.440;2023-02-04T06:34:36;2;2;
72023;PMS5003;59889;50.700;5.440;2023-02-04T06:37:00;3;3;
72023;PMS5003;59889;50.700;5.440;2023-02-04T06:39:25;1;1;
72023;PMS5003;59889;50.700;5.440;2023-02-04T06:41:51;3;2;
72023;PMS5003;59889;50.700;5.440;2023-02-04T06:44:16;2;2;
72023;PMS5003;59889;50.700;5.440;2023-02-04T06:46:41;1;1;
72023;PMS5003;59889;50.700;5.440;2023-02-04T06:49:06;2;1;
72023;PMS5003;59889;50.700;5.440;2023-02-04T06:51:31;0;0;
72023;PMS5003;59889;50.700;5.440;2023-02-04T06:53:57;1;1;
72023;PMS5003;59889;50.700;5.440;2023-02-04T06:56:21;2;2;
72023;PMS5003;59889;50.700;5.440;2023-02-04T06:58:46;2;1;
72023;PMS5003;59889;50.700;5.440;2023-02-04T07:01:11;0;0;
72023;PMS5003;59889;50.700;5.440;2023-02-04T07:03:37;1;1;
72023;PMS5003;59889;50.700;5.440;2023-02-04T07:06:01;2;2;
72023;PMS5003;59889;50.700;5.440;2023-02-04T07:08:27;1;1;
72023;PMS5003;59889;50.700;5.440;2023-02-04T07:10:52;1;1;
72023;PMS5003;59889;50.700;5.440;2023-02-04T07:13:17;2;2;
72023;PMS5003;59889;50.700;5.440;2023-02-04T07:15:43;2;2;
72023;PMS5003;59889;50.700;5.440;2023-02-04T07:18:07;1;1;
72023;PMS5003;59889;50.700;5.440;2023-02-04T07:20:32;1;1;
72023;PMS5003;59889;50.700;5.440;2023-02-04T07:22:57;1;1;
72023;PMS5003;59889;50.700;5.440;2023-02-04T07:25:22;1;1;
72023;PMS5003;59889;50.700;5.440;2023-02-04T07:27:47;2;2;
72023;PMS5003;59889;50.700;5.440;2023-02-04T07:30:12;2;1;
72023;PMS5003;59889;50.700;5.440;2023-02-04T07:32:37;2;2;
72023;PMS5003;59889;50.700;5.440;2023-02-04T07:35:03;2;2;
72023;PMS5003;59889;50.700;5.440;2023-02-04T07:37:28;1;1;
72023;PMS5003;59889;50.700;5.440;2023-02-04T07:39:53;1;1;
72023;PMS5003;59889;50.700;5.440;2023-02-04T07:42:18;2;2;
72023;PMS5003;59889;50.700;5.440;2023-02-04T07:44:43;1;1;
72023;PMS5003;59889;50.700;5.440;2023-02-04T07:47:08;1;1;
72023;PMS5003;59889;50.700;5.440;2023-02-04T07:49:38;2;2;
72023;PMS5003;59889;50.700;5.440;2023-02-04T07:51:58;2;2;
72023;PMS5003;59889;50.700;5.440;2023-02-04T07:54:23;1;1;
72023;PMS5003;59889;50.700;5.440;2023-02-04T07:56:48;1;1;
72023;PMS5003;59889;50.700;5.440;2023-02-04T07:59:13;1;0;
72023;PMS5003;59889;50.700;5.440;2023-02-04T08:01:38;1;1;
72023;PMS5003;59889;50.700;5.440;2023-02-04T08:06:29;1;1;
72023;PMS5003;59889;50.700;5.440;2023-02-04T08:08:54;1;1;
72023;PMS5003;59889;50.700;5.440;2023-02-04T08:11:19;0;0;
72023;PMS5003;59889;50.700;5.440;2023-02-04T08:13:44;2;2;
72023;PMS5003;59889;50.700;5.440;2023-02-04T08:16:09;1;1;
72023;PMS5003;59889;50.700;5.440;2023-02-04T08:18:34;1;1;
72023;PMS5003;59889;50.700;5.440;2023-02-04T08:23:25;2;2;
72023;PMS5003;59889;50.700;5.440;2023-02-04T08:25:49;1;1;
72023;PMS5003;59889;50.700;5.440;2023-02-04T08:28:14;2;2;
72023;PMS5003;59889;50.700;5.440;2023-02-04T08:30:39;3;3;
72023;PMS5003;59889;50.700;5.440;2023-02-04T08:33:04;4;4;
72023;PMS5003;59889;50.700;5.440;2023-02-04T08:35:29;3;3;
72023;PMS5003;59889;50.700;5.440;2023-02-04T08:37:54;3;3;
72023;PMS5003;59889;50.700;5.440;2023-02-04T08:40:19;5;4;
72023;PMS5003;59889;50.700;5.440;2023-02-04T08:42:45;7;5;
72023;PMS5003;59889;50.700;5.440;2023-02-04T08:45:10;9;9;
72023;PMS5003;59889;50.700;5.440;2023-02-04T08:47:35;11;9;
72023;PMS5003;59889;50.700;5.440;2023-02-04T08:50:05;10;10;
72023;PMS5003;59889;50.700;5.440;2023-02-04T08:52:25;8;8;
72023;PMS5003;59889;50.700;5.440;2023-02-04T08:55:01;14;12;
72023;PMS5003;59889;50.700;5.440;2023-02-04T08:57:17;11;11;
72023;PMS5003;59889;50.700;5.440;2023-02-04T08:59:42;16;15;
72023;PMS5003;59889;50.700;5.440;2023-02-04T09:02:08;13;13;
72023;PMS5003;59889;50.700;5.440;2023-02-04T09:04:32;20;19;
72023;PMS5003;59889;50.700;5.440;2023-02-04T09:06:57;29;27;
72023;PMS5003;59889;50.700;5.440;2023-02-04T09:09:24;21;20;
72023;PMS5003;59889;50.700;5.440;2023-02-04T09:11:49;38;36;
72023;PMS5003;59889;50.700;5.440;2023-02-04T09:14:14;36;31;
72023;PMS5003;59889;50.700;5.440;2023-02-04T09:16:49;37;35;
72023;PMS5003;59889;50.700;5.440;2023-02-04T09:19:13;39;38;
72023;PMS5003;59889;50.700;5.440;2023-02-04T09:21:30;38;31;
72023;PMS5003;59889;50.700;5.440;2023-02-04T09:24:10;38;34;
72023;PMS5003;59889;50.700;5.440;2023-02-04T09:26:21;28;27;
72023;PMS5003;59889;50.700;5.440;2023-02-04T09:28:47;31;29;
72023;PMS5003;59889;50.700;5.440;2023-02-04T09:31:12;34;31;
72023;PMS5003;59889;50.700;5.440;2023-02-04T09:33:37;27;26;
72023;PMS5003;59889;50.700;5.440;2023-02-04T09:36:04;26;24;
72023;PMS5003;59889;50.700;5.440;2023-02-04T09:38:29;27;23;
72023;PMS5003;59889;50.700;5.440;2023-02-04T09:40:55;28;26;
72023;PMS5003;59889;50.700;5.440;2023-02-04T09:43:21;25;23;
72023;PMS5003;59889;50.700;5.440;2023-02-04T09:45:45;27;26;
72023;PMS5003;59889;50.700;5.440;2023-02-04T09:48:20;26;23;
72023;PMS5003;59889;50.700;5.440;2023-02-04T09:50:35;22;21;
72023;PMS5003;59889;50.700;5.440;2023-02-04T09:53:02;22;22;
72023;PMS5003;59889;50.700;5.440;2023-02-04T09:55:28;23;23;
72023;PMS5003;59889;50.700;5.440;2023-02-04T09:57:53;19;19;
72023;PMS5003;59889;50.700;5.440;2023-02-04T10:00:19;17;17;
72023;PMS5003;59889;50.700;5.440;2023-02-04T10:02:43;19;17;
72023;PMS5003;59889;50.700;5.440;2023-02-04T10:05:14;21;20;
72023;PMS5003;59889;50.700;5.440;2023-02-04T10:07:36;15;15;
72023;PMS5003;59889;50.700;5.440;2023-02-04T10:10:00;21;19;
72023;PMS5003;59889;50.700;5.440;2023-02-04T10:12:26;15;14;
72023;PMS5003;59889;50.700;5.440;2023-02-04T10:14:50;15;14;
72023;PMS5003;59889;50.700;5.440;2023-02-04T10:17:17;21;18;
72023;PMS5003;59889;50.700;5.440;2023-02-04T10:19:45;14;13;
72023;PMS5003;59889;50.700;5.440;2023-02-04T10:22:16;12;12;
72023;PMS5003;59889;50.700;5.440;2023-02-04T10:24:31;15;13;
72023;PMS5003;59889;50.700;5.440;2023-02-04T10:29:22;13;12;
72023;PMS5003;59889;50.700;5.440;2023-02-04T10:31:48;15;15;
72023;PMS5003;59889;50.700;5.440;2023-02-04T10:34:13;15;14;
72023;PMS5003;59889;50.700;5.440;2023-02-04T10:36:37;13;12;
72023;PMS5003;59889;50.700;5.440;2023-02-04T10:39:02;13;11;
72023;PMS5003;59889;50.700;5.440;2023-02-04T10:41:28;15;14;
72023;PMS5003;59889;50.700;5.440;2023-02-04T10:43:54;12;12;
72023;PMS5003;59889;50.700;5.440;2023-02-04T10:46:18;11;11;
72023;PMS5003;59889;50.700;5.440;2023-02-04T10:48:43;13;13;
72023;PMS5003;59889;50.700;5.440;2023-02-04T10:51:08;11;10;
72023;PMS5003;59889;50.700;5.440;2023-02-04T10:53:33;13;11;
72023;PMS5003;59889;50.700;5.440;2023-02-04T10:56:10;12;11;
72023;PMS5003;59889;50.700;5.440;2023-02-04T10:58:25;12;11;
72023;PMS5003;59889;50.700;5.440;2023-02-04T11:00:54;10;9;
72023;PMS5003;59889;50.700;5.440;2023-02-04T11:03:14;8;8;
72023;PMS5003;59889;50.700;5.440;2023-02-04T11:05:39;10;8;
72023;PMS5003;59889;50.700;5.440;2023-02-04T11:10:30;10;8;
72023;PMS5003;59889;50.700;5.440;2023-02-04T11:12:58;9;9;
72023;PMS5003;59889;50.700;5.440;2023-02-04T11:17:58;11;9;
72023;PMS5003;59889;50.700;5.440;2023-02-04T11:20:16;11;10;
72023;PMS5003;59889;50.700;5.440;2023-02-04T11:22:40;13;12;
72023;PMS5003;59889;50.700;5.440;2023-02-04T11:25:02;11;11;
72023;PMS5003;59889;50.700;5.440;2023-02-04T11:29:51;12;12;
72023;PMS5003;59889;50.700;5.440;2023-02-04T11:34:44;15;13;
72023;PMS5003;59889;50.700;5.440;2023-02-04T11:37:13;15;14;
72023;PMS5003;59889;50.700;5.440;2023-02-04T11:39:33;14;13;
72023;PMS5003;59889;50.700;5.440;2023-02-04T11:41:57;14;14;
72023;PMS5003;59889;50.700;5.440;2023-02-04T11:44:22;13;13;
72023;PMS5003;59889;50.700;5.440;2023-02-04T11:46:48;20;16;
72023;PMS5003;59889;50.700;5.440;2023-02-04T11:49:13;16;16;
72023;PMS5003;59889;50.700;5.440;2023-02-04T11:51:37;14;14;
72023;PMS5003;59889;50.700;5.440;2023-02-04T11:54:04;18;15;
72023;PMS5003;59889;50.700;5.440;2023-02-04T11:56:29;14;14;
72023;PMS5003;59889;50.700;5.440;2023-02-04T11:58:54;17;17;
72023;PMS5003;59889;50.700;5.440;2023-02-04T12:01:19;16;16;
72023;PMS5003;59889;50.700;5.440;2023-02-04T12:03:45;16;16;
72023;PMS5003;59889;50.700;5.440;2023-02-04T12:06:20;16;16;
72023;PMS5003;59889;50.700;5.440;2023-02-04T12:08:35;13;13;
72023;PMS5003;59889;50.700;5.440;2023-02-04T12:11:01;15;14;
72023;PMS5003;59889;50.700;5.440;2023-02-04T12:13:25;15;14;
72023;PMS5003;59889;50.700;5.440;2023-02-04T12:15:52;17;16;
72023;PMS5003;59889;50.700;5.440;2023-02-04T12:18:15;17;16;
72023;PMS5003;59889;50.700;5.440;2023-02-04T12:20:40;14;13;
72023;PMS5003;59889;50.700;5.440;2023-02-04T12:23:05;15;15;
72023;PMS5003;59889;50.700;5.440;2023-02-04T12:25:30;14;13;
72023;PMS5003;59889;50.700;5.440;2023-02-04T12:27:55;13;13;
72023;PMS5003;59889;50.700;5.440;2023-02-04T12:30:20;13;13;
72023;PMS5003;59889;50.700;5.440;2023-02-04T12:32:45;15;15;
72023;PMS5003;59889;50.700;5.440;2023-02-04T12:35:11;16;15;
72023;PMS5003;59889;50.700;5.440;2023-02-04T12:37:37;15;15;
72023;PMS5003;59889;50.700;5.440;2023-02-04T12:40:02;16;13;
72023;PMS5003;59889;50.700;5.440;2023-02-04T12:42:27;13;13;
72023;PMS5003;59889;50.700;5.440;2023-02-04T12:44:52;16;15;
72023;PMS5003;59889;50.700;5.440;2023-02-04T12:47:17;16;12;
72023;PMS5003;59889;50.700;5.440;2023-02-04T12:49:44;13;13;
72023;PMS5003;59889;50.700;5.440;2023-02-04T12:52:07;13;13;
72023;PMS5003;59889;50.700;5.440;2023-02-04T12:54:32;11;11;
72023;PMS5003;59889;50.700;5.440;2023-02-04T12:56:58;14;14;
72023;PMS5003;59889;50.700;5.440;2023-02-04T12:59:23;15;14;
72023;PMS5003;59889;50.700;5.440;2023-02-04T13:01:48;12;12;
72023;PMS5003;59889;50.700;5.440;2023-02-04T13:04:13;11;11;
72023;PMS5003;59889;50.700;5.440;2023-02-04T13:06:38;13;12;
72023;PMS5003;59889;50.700;5.440;2023-02-04T13:09:03;13;13;
72023;PMS5003;59889;50.700;5.440;2023-02-04T13:11:29;13;13;
72023;PMS5003;59889;50.700;5.440;2023-02-04T13:13:54;14;13;
72023;PMS5003;59889;50.700;5.440;2023-02-04T13:16:19;18;14;
72023;PMS5003;59889;50.700;5.440;2023-02-04T13:18:54;12;12;
72023;PMS5003;59889;50.700;5.440;2023-02-04T13:21:09;13;13;
72023;PMS5003;59889;50.700;5.440;2023-02-04T13:23:34;11;11;
72023;PMS5003;59889;50.700;5.440;2023-02-04T13:25:59;12;12;
72023;PMS5003;59889;50.700;5.440;2023-02-04T13:28:24;11;11;
72023;PMS5003;59889;50.700;5.440;2023-02-04T13:30:50;15;14;
72023;PMS5003;59889;50.700;5.440;2023-02-04T13:33:15;14;14;
72023;PMS5003;59889;50.700;5.440;2023-02-04T13:35:40;11;11;
72023;PMS5003;59889;50.700;5.440;2023-02-04T13:38:05;13;11;
72023;PMS5003;59889;50.700;5.440;2023-02-04T13:40:30;12;11;
72023;PMS5003;59889;50.700;5.440;2023-02-04T13:42:55;12;11;
72023;PMS5003;59889;50.700;5.440;2023-02-04T13:45:20;12;12;
72023;PMS5003;59889;50.700;5.440;2023-02-04T13:47:55;13;12;
72023;PMS5003;59889;50.700;5.440;2023-02-04T13:50:11;13;13;
72023;PMS5003;59889;50.700;5.440;2023-02-04T13:52:36;11;11;
72023;PMS5003;59889;50.700;5.440;2023-02-04T13:55:01;13;11;
72023;PMS5003;59889;50.700;5.440;2023-02-04T13:57:26;13;12;
72023;PMS5003;59889;50.700;5.440;2023-02-04T13:59:51;11;11;
72023;PMS5003;59889;50.700;5.440;2023-02-04T14:02:16;12;12;
72023;PMS5003;59889;50.700;5.440;2023-02-04T14:04:41;12;12;
72023;PMS5003;59889;50.700;5.440;2023-02-04T14:07:07;13;12;
72023;PMS5003;59889;50.700;5.440;2023-02-04T14:09:32;13;13;
72023;PMS5003;59889;50.700;5.440;2023-02-04T14:11:58;12;12;
72023;PMS5003;59889;50.700;5.440;2023-02-04T14:14:23;12;12;
72023;PMS5003;59889;50.700;5.440;2023-02-04T14:16:50;11;10;
72023;PMS5003;59889;50.700;5.440;2023-02-04T14:19:14;11;11;
72023;PMS5003;59889;50.700;5.440;2023-02-04T14:21:38;12;12;
72023;PMS5003;59889;50.700;5.440;2023-02-04T14:24:03;12;11;
72023;PMS5003;59889;50.700;5.440;2023-02-04T14:26:28;11;11;
72023;PMS5003;59889;50.700;5.440;2023-02-04T14:28:53;12;11;
72023;PMS5003;59889;50.700;5.440;2023-02-04T14:31:19;12;11;
72023;PMS5003;59889;50.700;5.440;2023-02-04T14:33:44;13;13;
72023;PMS5003;59889;50.700;5.440;2023-02-04T14:36:09;12;12;
72023;PMS5003;59889;50.700;5.440;2023-02-04T14:38:35;13;12;
72023;PMS5003;59889;50.700;5.440;2023-02-04T14:40:59;11;11;
72023;PMS5003;59889;50.700;5.440;2023-02-04T14:43:25;16;16;
72023;PMS5003;59889;50.700;5.440;2023-02-04T14:45:50;20;20;
72023;PMS5003;59889;50.700;5.440;2023-02-04T14:48:15;19;18;
72023;PMS5003;59889;50.700;5.440;2023-02-04T14:50:40;20;20;
72023;PMS5003;59889;50.700;5.440;2023-02-04T14:53:05;18;18;
72023;PMS5003;59889;50.700;5.440;2023-02-04T14:55:30;21;20;
72023;PMS5003;59889;50.700;5.440;2023-02-04T14:57:57;23;23;
72023;PMS5003;59889;50.700;5.440;2023-02-04T15:00:21;21;21;
72023;PMS5003;59889;50.700;5.440;2023-02-04T15:02:47;19;19;
72023;PMS5003;59889;50.700;5.440;2023-02-04T15:05:11;22;22;
72023;PMS5003;59889;50.700;5.440;2023-02-04T15:07:37;22;22;
72023;PMS5003;59889;50.700;5.440;2023-02-04T15:10:02;21;21;
72023;PMS5003;59889;50.700;5.440;2023-02-04T15:12:27;23;23;
72023;PMS5003;59889;50.700;5.440;2023-02-04T15:14:53;21;20;
72023;PMS5003;59889;50.700;5.440;2023-02-04T15:17:20;25;25;
72023;PMS5003;59889;50.700;5.440;2023-02-04T15:19:45;24;23;
72023;PMS5003;59889;50.700;5.440;2023-02-04T15:22:08;19;19;
72023;PMS5003;59889;50.700;5.440;2023-02-04T15:24:33;23;23;
72023;PMS5003;59889;50.700;5.440;2023-02-04T15:26:59;24;23;
72023;PMS5003;59889;50.700;5.440;2023-02-04T15:29:23;25;24;
72023;PMS5003;59889;50.700;5.440;2023-02-04T15:31:50;23;23;
72023;PMS5003;59889;50.700;5.440;2023-02-04T15:34:14;23;21;
72023;PMS5003;59889;50.700;5.440;2023-02-04T15:36:39;26;26;
72023;PMS5003;59889;50.700;5.440;2023-02-04T15:39:05;24;23;
72023;PMS5003;59889;50.700;5.440;2023-02-04T15:41:31;23;23;
72023;PMS5003;59889;50.700;5.440;2023-02-04T15:43:55;21;21;
72023;PMS5003;59889;50.700;5.440;2023-02-04T15:46:25;26;24;
72023;PMS5003;59889;50.700;5.440;2023-02-04T15:48:55;22;22;
72023;PMS5003;59889;50.700;5.440;2023-02-04T15:51:20;24;22;
72023;PMS5003;59889;50.700;5.440;2023-02-04T15:53:35;23;23;
72023;PMS5003;59889;50.700;5.440;2023-02-04T15:56:01;22;22;
72023;PMS5003;59889;50.700;5.440;2023-02-04T15:58:27;23;23;
72023;PMS5003;59889;50.700;5.440;2023-02-04T16:00:51;23;22;
72023;PMS5003;59889;50.700;5.440;2023-02-04T16:03:16;21;21;
72023;PMS5003;59889;50.700;5.440;2023-02-04T16:05:41;21;21;
72023;PMS5003;59889;50.700;5.440;2023-02-04T16:08:06;22;21;
72023;PMS5003;59889;50.700;5.440;2023-02-04T16:10:31;21;21;
72023;PMS5003;59889;50.700;5.440;2023-02-04T16:12:57;22;22;
72023;PMS5003;59889;50.700;5.440;2023-02-04T16:15:22;23;23;
72023;PMS5003;59889;50.700;5.440;2023-02-04T16:17:47;21;21;
72023;PMS5003;59889;50.700;5.440;2023-02-04T16:20:12;21;21;
72023;PMS5003;59889;50.700;5.440;2023-02-04T16:22:37;24;24;
72023;PMS5003;59889;50.700;5.440;2023-02-04T16:25:02;22;22;
72023;PMS5003;59889;50.700;5.440;2023-02-04T16:27:28;23;23;
72023;PMS5003;59889;50.700;5.440;2023-02-04T16:29:53;22;22;
72023;PMS5003;59889;50.700;5.440;2023-02-04T16:32:18;22;21;
72023;PMS5003;59889;50.700;5.440;2023-02-04T16:34:43;22;21;
72023;PMS5003;59889;50.700;5.440;2023-02-04T16:37:08;22;21;
72023;PMS5003;59889;50.700;5.440;2023-02-04T16:39:33;23;23;
72023;PMS5003;59889;50.700;5.440;2023-02-04T16:42:00;21;21;
72023;PMS5003;59889;50.700;5.440;2023-02-04T16:44:34;20;19;